createdAt,value
2022-09-01T00:00:15.940Z,24.92
2022-09-01T00:02:44.689Z,25.05
2022-09-01T00:05:13.898Z,24.81
2022-09-01T00:07:41.406Z,24.59
2022-09-01T00:10:10.062Z,24.76
2022-09-01T00:12:38.517Z,24.85
2022-09-01T00:15:09.200Z,24.65
2022-09-01T00:17:37.099Z,24.53
2022-09-01T00:20:05.940Z,24.84
2022-09-01T00:22:33.986Z,24.93
2022-09-01T00:25:06.636Z,24.78
2022-09-01T00:27:34.270Z,24.89
2022-09-01T00:30:02.083Z,24.71
2022-09-01T00:32:29.524Z,24.59
2022-09-01T00:34:57.001Z,24.59
2022-09-01T00:37:24.925Z,24.47
2022-09-01T00:39:52.750Z,24.47
2022-09-01T00:42:21.314Z,24.25
2022-09-01T00:44:49.230Z,24.48
2022-09-01T00:47:16.982Z,24.41
2022-09-01T00:49:53.338Z,24.45
2022-09-01T00:52:25.042Z,24.10
2022-09-01T00:54:58.192Z,24.29
2022-09-01T00:57:27.213Z,24.35
2022-09-01T01:00:17.257Z,24.21
2022-09-01T01:02:47.684Z,24.35
2022-09-01T01:05:16.323Z,24.40
2022-09-01T01:07:47.602Z,24.25
2022-09-01T01:10:19.286Z,24.27
2022-09-01T01:12:47.118Z,23.65
2022-09-01T01:15:15.157Z,23.38
2022-09-01T01:17:42.620Z,23.71
2022-09-01T01:20:34.166Z,23.77
2022-09-01T01:23:16.743Z,24.02
2022-09-01T01:25:51.653Z,24.33
2022-09-01T01:28:40.364Z,24.12
2022-09-01T01:31:19.564Z,24.11
2022-09-01T01:33:51.837Z,24.30
2022-09-01T01:36:31.225Z,24.11
2022-09-01T01:39:12.453Z,24.27
2022-09-01T01:41:43.814Z,24.50
2022-09-01T01:44:13.770Z,24.30
2022-09-01T01:46:47.421Z,24.62
2022-09-01T01:49:20.013Z,24.52
2022-09-01T01:51:56.122Z,24.27
2022-09-01T01:54:31.318Z,23.99
2022-09-01T01:57:00.754Z,24.05
2022-09-01T01:59:29.654Z,23.88
2022-09-01T02:01:58.385Z,24.01
2022-09-01T02:04:27.996Z,24.19
2022-09-01T02:06:55.917Z,24.19
2022-09-01T02:09:23.470Z,24.15
2022-09-01T02:11:57.325Z,24.05
2022-09-01T02:14:25.112Z,24.23
2022-09-01T02:16:56.127Z,24.54
2022-09-01T02:19:23.905Z,24.60
2022-09-01T02:21:56.256Z,24.97
2022-09-01T02:24:31.933Z,25.06
2022-09-01T02:27:02.933Z,24.88
2022-09-01T02:29:31.433Z,24.82
2022-09-01T02:32:07.741Z,24.81
2022-09-01T02:34:39.446Z,24.81
2022-09-01T02:37:09.148Z,24.70
2022-09-01T02:39:36.756Z,24.41
2022-09-01T02:42:04.634Z,24.37
2022-09-01T02:44:32.698Z,24.33
2022-09-01T02:47:04.176Z,24.24
2022-09-01T02:49:31.921Z,24.42
2022-09-01T02:52:01.865Z,24.62
2022-09-01T02:54:32.923Z,24.69
2022-09-01T02:57:04.118Z,24.95
2022-09-01T02:59:34.988Z,24.85
2022-09-01T03:02:02.573Z,25.10
2022-09-01T03:04:33.998Z,25.21
2022-09-01T03:07:04.360Z,25.14
2022-09-01T03:09:32.855Z,24.91
2022-09-01T03:12:00.381Z,25.31
2022-09-01T03:14:30.159Z,25.06
2022-09-01T03:16:57.853Z,25.28
2022-09-01T03:19:25.553Z,25.12
2022-09-01T03:21:53.010Z,25.34
2022-09-01T03:24:24.673Z,25.31
2022-09-01T03:26:53.584Z,25.34
2022-09-01T03:29:21.190Z,25.09
2022-09-01T03:31:49.506Z,25.14
2022-09-01T03:34:20.918Z,25.14
2022-09-01T03:37:00.316Z,25.13
2022-09-01T03:39:29.784Z,25.25
2022-09-01T03:41:59.120Z,25.05
2022-09-01T03:44:27.386Z,24.88
2022-09-01T03:46:54.985Z,24.79
2022-09-01T03:49:25.266Z,25.10
2022-09-01T03:51:54.063Z,24.84
2022-09-01T03:54:30.841Z,25.04
2022-09-01T03:57:00.203Z,25.03
2022-09-01T03:59:30.237Z,24.96
2022-09-01T04:02:00.654Z,24.93
2022-09-01T04:04:31.623Z,24.94
2022-09-01T04:07:02.866Z,25.10
2022-09-01T04:09:35.260Z,24.84
2022-09-01T08:33:33.030Z,27.30
2022-09-01T10:23:33.324Z,29.77
2022-09-01T11:59:25.742Z,29.04
2022-09-01T12:19:20.709Z,28.81
2022-09-01T12:35:57.483Z,29.45
2022-09-01T13:01:46.166Z,29.36
2022-09-01T13:40:31.215Z,28.26
2022-09-01T14:05:21.152Z,29.09
2022-09-01T14:22:43.039Z,29.51
2022-09-01T15:06:39.979Z,28.41
2022-09-01T15:09:19.198Z,28.60
2022-09-01T15:12:50.557Z,28.19
2022-09-01T15:15:37.598Z,28.39
2022-09-01T15:18:13.245Z,28.27
2022-09-01T15:21:33.941Z,27.90
2022-09-01T15:24:04.917Z,27.47
2022-09-01T15:26:35.986Z,27.99
2022-09-01T15:29:12.210Z,28.16
2022-09-01T19:48:08.047Z,24.37
2022-09-01T19:51:00.801Z,24.46
2022-09-01T21:03:47.317Z,24.32
2022-09-01T22:48:00.861Z,24.15
2022-09-01T23:03:21.832Z,23.82
2022-09-01T23:06:26.874Z,24.17
2022-09-01T23:09:02.214Z,24.13
2022-09-01T23:11:36.975Z,24.42
2022-09-01T23:14:59.312Z,23.94
2022-09-01T23:17:33.040Z,23.57
2022-09-01T23:20:16.511Z,23.61
2022-09-01T23:22:49.559Z,23.79
2022-09-01T23:25:31.147Z,23.29
2022-09-01T23:28:07.162Z,23.52
2022-09-01T23:30:38.473Z,23.77
2022-09-01T23:33:13.413Z,23.67
2022-09-01T23:35:50.175Z,23.56
2022-09-01T23:38:23.333Z,23.51
2022-09-01T23:41:15.779Z,23.66
2022-09-01T23:43:51.330Z,23.75
2022-09-01T23:46:30.367Z,23.82
2022-09-01T23:49:57.241Z,23.80
2022-09-01T23:52:26.152Z,24.11
2022-09-01T23:54:59.992Z,23.80
2022-09-01T23:57:30.929Z,23.95
